Time;durP1;ratioP1;P1;durP2;ratioP2;P2;SDS_P1;SDS_P2;PMS_P1;PMS_P2;Temp;Humidity;BMP_temperature;BMP_pressure;BME280_temperature;BME280_humidity;BME280_pressure;Samples;Min_cycle;Max_cycle;Signal;HPM_P1;HPM_P2
2022/07/06 00:00:28;;;;;;;3.25;2.08;;;19.10;1.00;;;;;;7366423;19;20010;-61
2022/07/06 00:02:58;;;;;;;3.75;2.30;;;19.00;1.00;;;;;;7370707;19;20014;-61
2022/07/06 00:05:28;;;;;;;4.78;2.20;;;18.90;1.00;;;;;;7388972;19;20457;-61
2022/07/06 00:07:58;;;;;;;4.90;2.58;;;18.80;1.00;;;;;;7366836;19;20025;-61
2022/07/06 00:10:28;;;;;;;3.03;2.45;;;18.80;1.00;;;;;;7368315;19;20014;-61
2022/07/06 00:12:58;;;;;;;2.90;2.17;;;18.60;1.00;;;;;;7369807;19;20010;-61
2022/07/06 00:15:30;;;;;;;5.65;2.60;;;18.60;1.00;;;;;;7365223;19;20014;-61
2022/07/06 00:18:00;;;;;;;4.13;2.22;;;18.60;1.00;;;;;;7365890;19;20015;-61
2022/07/06 00:20:30;;;;;;;3.45;2.20;;;18.60;1.00;;;;;;7366489;19;20007;-62
2022/07/06 00:23:00;;;;;;;4.18;2.30;;;18.60;1.00;;;;;;7388005;19;20025;-61
2022/07/06 00:25:29;;;;;;;4.85;2.65;;;18.60;1.00;;;;;;7363886;19;20022;-61
2022/07/06 00:27:59;;;;;;;3.35;2.40;;;18.40;1.00;;;;;;7366898;19;20015;-61
2022/07/06 00:30:32;;;;;;;3.28;2.65;;;18.40;1.00;;;;;;7365281;19;20017;-61
2022/07/06 00:33:02;;;;;;;4.35;2.35;;;18.40;1.00;;;;;;7368635;19;20017;-61
2022/07/06 00:35:32;;;;;;;3.58;2.65;;;18.40;1.00;;;;;;7365835;19;20028;-61
2022/07/06 00:38:02;;;;;;;6.32;2.45;;;18.30;1.00;;;;;;7387220;19;20015;-61
2022/07/06 00:40:32;;;;;;;6.57;2.70;;;18.20;1.00;;;;;;7364480;19;20077;-61
2022/07/06 00:43:02;;;;;;;3.55;2.38;;;18.20;1.00;;;;;;7367258;19;20015;-61
2022/07/06 00:45:35;;;;;;;3.67;2.58;;;18.20;1.00;;;;;;7363896;19;20013;-61
2022/07/06 00:48:05;;;;;;;6.05;2.60;;;18.10;1.00;;;;;;7367642;19;20045;-60
2022/07/06 00:50:36;;;;;;;5.68;2.78;;;18.00;1.00;;;;;;7365709;19;20533;-62
2022/07/06 00:53:08;;;;;;;3.78;2.10;;;18.00;1.00;;;;;;7389424;19;20417;-61
2022/07/06 00:55:40;;;;;;;4.75;2.70;;;18.00;1.00;;;;;;7362312;19;20443;-61
2022/07/06 00:58:11;;;;;;;5.22;2.78;;;17.90;1.00;;;;;;7365788;19;20014;-61
2022/07/06 01:00:45;;;;;;;3.78;2.50;;;17.90;1.00;;;;;;7363320;19;20027;-61
2022/07/06 01:03:15;;;;;;;4.72;2.38;;;17.80;1.00;;;;;;7368048;19;20010;-61
2022/07/06 01:05:46;;;;;;;4.78;2.53;;;17.80;1.00;;;;;;7362449;19;20469;-61
2022/07/06 01:08:16;;;;;;;4.65;2.55;;;17.80;1.00;;;;;;7388505;19;20014;-61
2022/07/06 01:10:46;;;;;;;6.38;2.38;;;17.70;1.00;;;;;;7364086;19;20030;-61
2022/07/06 01:13:16;;;;;;;4.05;2.25;;;17.60;1.00;;;;;;7366463;19;20470;-61
2022/07/06 01:15:48;;;;;;;5.20;2.50;;;17.60;1.00;;;;;;7362124;19;20171;-61
2022/07/06 01:18:18;;;;;;;6.13;2.40;;;17.60;1.00;;;;;;7365028;19;20489;-61
2022/07/06 01:20:51;;;;;;;4.93;2.65;;;17.60;1.00;;;;;;7365176;19;20020;-61
2022/07/06 01:23:21;;;;;;;3.05;2.40;;;17.50;1.00;;;;;;7388687;19;20019;-61
2022/07/06 01:25:51;;;;;;;3.55;2.35;;;17.40;1.00;;;;;;7361671;19;20436;-61
2022/07/06 01:28:21;;;;;;;3.70;2.10;;;17.40;1.00;;;;;;7365561;19;20085;-61
2022/07/06 01:30:51;;;;;;;4.35;2.17;;;17.40;1.00;;;;;;7364245;19;20010;-61
2022/07/06 01:33:21;;;;;;;3.10;2.30;;;17.30;1.00;;;;;;7367783;19;20093;-61
2022/07/06 01:35:53;;;;;;;3.97;2.33;;;17.20;1.00;;;;;;7361886;19;20021;-61
2022/07/06 01:38:23;;;;;;;3.33;2.33;;;17.20;1.00;;;;;;7384478;19;20018;-60
2022/07/06 01:40:53;;;;;;;4.20;2.28;;;17.20;1.00;;;;;;7363651;19;20027;-60
2022/07/06 01:43:23;;;;;;;6.35;2.60;;;17.20;1.00;;;;;;7366748;19;20474;-60
2022/07/06 01:45:53;;;;;;;4.28;2.33;;;17.10;1.00;;;;;;7359943;19;20024;-60
2022/07/06 01:48:23;;;;;;;3.72;2.33;;;17.20;1.00;;;;;;7365976;19;20470;-60
2022/07/06 01:50:56;;;;;;;4.38;2.50;;;17.10;1.00;;;;;;7362917;19;20516;-60
2022/07/06 01:53:26;;;;;;;6.55;2.38;;;17.00;1.00;;;;;;7387902;19;20082;-61
2022/07/06 01:55:56;;;;;;;4.45;2.42;;;17.00;1.00;;;;;;7360975;19;20011;-60
2022/07/06 01:58:26;;;;;;;8.07;2.72;;;17.00;1.00;;;;;;7363021;19;20010;-60
2022/07/06 02:00:56;;;;;;;6.38;2.50;;;16.80;1.00;;;;;;7362426;19;20110;-60
2022/07/06 02:03:26;;;;;;;6.47;2.53;;;16.80;1.00;;;;;;7366481;19;20094;-60
2022/07/06 02:05:58;;;;;;;3.33;2.17;;;16.90;1.00;;;;;;7361255;19;20014;-61
2022/07/06 02:08:28;;;;;;;2.35;2.13;;;16.90;1.00;;;;;;7386748;19;20362;-63
2022/07/06 02:10:58;;;;;;;7.85;2.53;;;16.80;1.00;;;;;;7383967;19;20389;-60
2022/07/06 02:13:28;;;;;;;12.65;2.65;;;16.80;1.00;;;;;;7365198;19;20006;-60
2022/07/06 02:15:58;;;;;;;4.75;2.40;;;16.80;1.00;;;;;;7360061;19;20058;-60
2022/07/06 02:18:28;;;;;;;5.82;2.72;;;16.70;1.00;;;;;;7364715;19;20743;-60
2022/07/06 02:21:00;;;;;;;3.75;2.50;;;16.70;1.00;;;;;;7361743;19;20074;-60
2022/07/06 02:23:30;;;;;;;4.72;2.58;;;16.60;1.00;;;;;;7364779;19;20474;-61
2022/07/06 02:26:00;;;;;;;5.15;2.50;;;16.60;1.00;;;;;;7380794;19;20018;-60
2022/07/06 02:28:30;;;;;;;3.00;2.15;;;16.50;1.00;;;;;;7363611;19;20010;-60
2022/07/06 02:31:00;;;;;;;7.13;3.05;;;16.50;1.00;;;;;;7361645;19;20018;-60
2022/07/06 02:33:30;;;;;;;3.25;2.55;;;16.40;1.00;;;;;;7364505;19;20010;-60
2022/07/06 02:36:02;;;;;;;3.10;2.50;;;16.30;1.00;;;;;;7358941;19;20518;-60
2022/07/06 02:38:32;;;;;;;6.03;2.75;;;16.30;1.00;;;;;;7362803;19;20167;-60
2022/07/06 02:41:02;;;;;;;3.47;2.65;;;16.40;1.00;;;;;;7383962;19;20117;-60
2022/07/06 02:43:32;;;;;;;4.15;3.00;;;16.30;1.00;;;;;;7364558;19;20034;-60
2022/07/06 02:46:02;;;;;;;5.10;3.42;;;16.30;1.00;;;;;;7358532;19;20458;-60
2022/07/06 02:48:32;;;;;;;3.97;2.50;;;16.20;1.00;;;;;;7364526;19;20014;-60
2022/07/06 02:51:05;;;;;;;4.13;2.85;;;16.20;1.00;;;;;;7360604;19;20014;-60
2022/07/06 02:53:35;;;;;;;5.22;3.00;;;16.10;1.00;;;;;;7365396;19;20021;-60
2022/07/06 02:56:04;;;;;;;3.90;3.08;;;16.10;1.00;;;;;;7379867;19;20458;-60
2022/07/06 02:58:34;;;;;;;6.57;3.00;;;16.10;1.00;;;;;;7362148;19;20078;-60
2022/07/06 03:01:04;;;;;;;4.47;3.22;;;16.10;1.00;;;;;;7360927;19;20073;-60
2022/07/06 03:03:35;;;;;;;3.95;3.00;;;16.00;1.00;;;;;;7365395;19;20014;-60
2022/07/06 03:06:08;;;;;;;4.00;2.90;;;16.00;1.00;;;;;;7358854;19;20038;-60
2022/07/06 03:08:38;;;;;;;3.90;3.25;;;16.00;1.00;;;;;;7364115;19;20013;-60
2022/07/06 03:11:08;;;;;;;7.07;3.22;;;16.10;1.00;;;;;;7381438;19;20445;-60
2022/07/06 03:13:38;;;;;;;10.63;3.42;;;16.00;1.00;;;;;;7363810;19;20014;-60
2022/07/06 03:16:08;;;;;;;4.90;2.97;;;16.00;1.00;;;;;;7357908;19;20470;-60
2022/07/06 03:18:38;;;;;;;7.18;3.47;;;15.90;1.00;;;;;;7363147;19;20115;-60
2022/07/06 03:21:11;;;;;;;8.82;3.95;;;16.00;1.00;;;;;;7361022;19;20095;-60
2022/07/06 03:23:41;;;;;;;4.97;2.85;;;16.00;1.00;;;;;;7363809;19;20458;-60
2022/07/06 03:26:11;;;;;;;5.65;3.25;;;16.00;1.00;;;;;;7386673;19;20173;-60
2022/07/06 03:28:40;;;;;;;6.18;2.95;;;16.00;1.00;;;;;;7368413;19;20362;-60
2022/07/06 03:31:10;;;;;;;4.18;3.17;;;16.00;1.00;;;;;;7367299;19;20015;-60
2022/07/06 03:33:40;;;;;;;7.95;3.42;;;16.00;1.00;;;;;;7370052;19;20102;-60
2022/07/06 03:36:13;;;;;;;5.63;3.17;;;16.00;1.00;;;;;;7365411;19;20030;-62
2022/07/06 03:38:43;;;;;;;4.32;3.40;;;15.90;1.00;;;;;;7369362;19;20014;-61
2022/07/06 03:41:13;;;;;;;5.70;3.35;;;15.80;1.00;;;;;;7388765;19;20022;-61
2022/07/06 03:43:42;;;;;;;9.23;3.50;;;15.80;1.00;;;;;;7369899;19;20010;-61
2022/07/06 03:46:12;;;;;;;4.93;3.08;;;15.70;1.00;;;;;;7364107;19;20030;-61
2022/07/06 03:48:42;;;;;;;7.75;3.80;;;15.70;1.00;;;;;;7369470;19;20007;-61
2022/07/06 03:51:14;;;;;;;6.53;3.03;;;15.60;1.00;;;;;;7367073;19;20362;-62
2022/07/06 03:53:44;;;;;;;5.60;3.85;;;15.50;1.00;;;;;;7370264;19;20007;-60
2022/07/06 03:58:57;;;;;;;4.25;3.50;;;15.50;1.00;;;;;;7368189;19;20033;-60
2022/07/06 04:01:27;;;;;;;5.97;4.00;;;15.60;1.00;;;;;;7366050;19;20025;-61
2022/07/06 04:03:57;;;;;;;6.22;3.47;;;16.20;1.00;;;;;;7369038;19;20010;-61
2022/07/06 04:06:30;;;;;;;5.28;3.80;;;16.30;1.00;;;;;;7366994;19;20015;-61
2022/07/06 04:09:00;;;;;;;4.85;3.15;;;16.70;1.00;;;;;;7368998;19;20356;-61
2022/07/06 04:11:29;;;;;;;7.22;3.70;;;16.80;1.00;;;;;;7373760;19;20019;-61
2022/07/06 04:13:59;;;;;;;8.40;4.13;;;17.00;1.00;;;;;;7389325;19;20014;-61
2022/07/06 04:16:29;;;;;;;8.52;3.55;;;17.30;1.00;;;;;;7365310;19;20018;-61
2022/07/06 04:18:59;;;;;;;8.02;3.85;;;17.40;1.00;;;;;;7366685;19;20015;-61
2022/07/06 04:21:32;;;;;;;5.38;3.33;;;17.00;1.00;;;;;;7365683;19;20014;-61
2022/07/06 04:24:01;;;;;;;8.68;3.40;;;17.20;1.00;;;;;;7367035;19;20074;-61
2022/07/06 04:26:31;;;;;;;6.53;3.22;;;17.80;1.00;;;;;;7363394;19;20066;-61
2022/07/06 04:29:01;;;;;;;5.95;3.40;;;18.00;1.00;;;;;;7389192;19;20026;-61
2022/07/06 04:31:31;;;;;;;4.57;3.40;;;17.70;1.00;;;;;;7365737;19;20486;-61
2022/07/06 04:34:01;;;;;;;6.43;4.28;;;18.10;1.00;;;;;;7366416;19;20027;-61
2022/07/06 04:36:33;;;;;;;6.78;3.60;;;17.60;1.00;;;;;;7362810;19;20015;-61
2022/07/06 04:39:03;;;;;;;8.77;3.90;;;17.80;1.00;;;;;;7367791;19;20010;-60
2022/07/06 04:41:33;;;;;;;6.40;3.83;;;18.80;1.00;;;;;;7365216;19;20014;-61
2022/07/06 04:44:03;;;;;;;4.65;3.55;;;19.00;1.00;;;;;;7388204;19;20018;-61
2022/07/06 04:46:33;;;;;;;5.95;3.90;;;18.80;1.00;;;;;;7363925;19;20085;-60
2022/07/06 04:49:03;;;;;;;7.28;3.67;;;19.30;1.00;;;;;;7367160;19;20075;-61
2022/07/06 04:51:35;;;;;;;4.15;3.75;;;19.10;1.00;;;;;;7365656;19;20049;-61
2022/07/06 04:54:05;;;;;;;5.22;3.50;;;18.70;1.00;;;;;;7365792;19;20042;-61
2022/07/06 04:56:35;;;;;;;6.85;3.53;;;19.00;1.00;;;;;;7362751;19;20014;-61
2022/07/06 04:59:05;;;;;;;7.00;3.95;;;19.60;1.00;;;;;;7388068;19;20494;-61
2022/07/06 05:01:35;;;;;;;5.63;3.60;;;19.10;1.00;;;;;;7364121;19;20010;-61
2022/07/06 05:04:05;;;;;;;5.90;3.67;;;19.60;1.00;;;;;;7365252;19;20003;-61
2022/07/06 05:06:38;;;;;;;6.50;3.47;;;20.60;1.00;;;;;;7364593;19;20389;-61
2022/07/06 05:09:08;;;;;;;4.38;3.03;;;19.40;1.00;;;;;;7367407;19;20025;-62
2022/07/06 05:11:38;;;;;;;4.57;3.38;;;21.40;1.00;;;;;;7364285;19;20077;-61
2022/07/06 05:14:08;;;;;;;5.55;3.50;;;20.90;1.00;;;;;;7386673;19;20018;-62
2022/07/06 05:16:37;;;;;;;7.47;3.50;;;21.20;1.00;;;;;;7362446;19;20013;-62
2022/07/06 05:19:07;;;;;;;8.85;3.40;;;21.90;1.00;;;;;;7365133;19;20750;-61
2022/07/06 05:21:40;;;;;;;6.82;2.97;;;21.10;1.00;;;;;;7362606;19;20358;-61
2022/07/06 05:24:10;;;;;;;6.03;3.05;;;21.50;1.00;;;;;;7363784;19;20081;-61
2022/07/06 05:26:40;;;;;;;7.90;3.22;;;22.20;1.00;;;;;;7361410;19;20530;-60
2022/07/06 05:29:10;;;;;;;8.65;3.25;;;21.50;1.00;;;;;;7387866;19;20014;-61
2022/07/06 05:31:40;;;;;;;4.30;3.15;;;20.90;1.00;;;;;;7360025;19;20058;-60
2022/07/06 05:34:09;;;;;;;9.55;3.50;;;21.10;1.00;;;;;;7363002;19;20022;-62
2022/07/06 05:36:43;;;;;;;5.03;3.20;;;21.60;1.00;;;;;;7363065;19;20018;-60
2022/07/06 05:39:13;;;;;;;8.00;3.67;;;20.70;1.00;;;;;;7364332;19;20014;-61
2022/07/06 05:41:42;;;;;;;6.40;2.95;;;22.20;1.00;;;;;;7362780;19;20045;-61
2022/07/06 05:44:12;;;;;;;4.38;3.30;;;21.60;1.00;;;;;;7384758;19;20010;-61
2022/07/06 05:46:42;;;;;;;3.35;2.97;;;20.20;1.00;;;;;;7359928;19;20016;-61
2022/07/06 05:51:58;;;;;;;6.68;3.50;;;19.80;1.00;;;;;;7363438;19;20400;-61
2022/07/06 05:54:28;;;;;;;5.85;3.10;;;20.20;1.00;;;;;;7362476;19;20006;-61
2022/07/06 05:56:57;;;;;;;4.18;3.28;;;20.90;1.00;;;;;;7361852;19;20018;-61
2022/07/06 05:59:27;;;;;;;4.38;2.90;;;20.80;1.00;;;;;;7385663;19;20010;-61
2022/07/06 06:01:57;;;;;;;5.43;3.15;;;20.50;1.00;;;;;;7362225;19;20015;-61
2022/07/06 06:04:27;;;;;;;6.70;3.00;;;18.60;1.00;;;;;;7362166;19;20007;-61
2022/07/06 06:06:59;;;;;;;3.75;3.05;;;17.60;1.00;;;;;;7361947;19;20078;-61
2022/07/06 06:09:29;;;;;;;11.75;3.38;;;17.40;1.00;;;;;;7364998;19;20007;-61
2022/07/06 06:11:59;;;;;;;8.45;3.50;;;18.20;1.00;;;;;;7362530;19;20024;-61
2022/07/06 06:14:29;;;;;;;4.25;3.00;;;18.20;1.00;;;;;;7372737;19;20018;-61
2022/07/06 06:17:00;;;;;;;6.80;3.40;;;18.00;1.00;;;;;;7381381;19;20127;-61
2022/07/06 06:19:30;;;;;;;5.68;3.08;;;18.20;1.00;;;;;;7362599;19;20017;-61
2022/07/06 06:22:03;;;;;;;6.85;3.88;;;18.20;1.00;;;;;;7362225;19;20018;-61
2022/07/06 06:24:32;;;;;;;4.45;3.20;;;18.10;1.00;;;;;;7362849;19;20022;-61
2022/07/06 06:27:02;;;;;;;5.22;3.15;;;18.10;1.00;;;;;;7360686;19;20016;-62
2022/07/06 06:29:32;;;;;;;4.28;3.40;;;17.90;1.00;;;;;;7363869;19;20028;-62
2022/07/06 06:32:02;;;;;;;6.65;3.30;;;18.20;1.00;;;;;;7382462;19;20101;-62
2022/07/06 06:34:32;;;;;;;4.82;3.63;;;18.50;1.00;;;;;;7362144;19;20046;-59
2022/07/06 06:37:05;;;;;;;6.45;3.05;;;18.10;1.00;;;;;;7361300;19;20380;-60
2022/07/06 06:39:35;;;;;;;6.22;3.30;;;18.50;1.00;;;;;;7363129;19;20074;-60
2022/07/06 06:42:05;;;;;;;5.60;3.22;;;18.70;1.00;;;;;;7360986;19;20185;-60
2022/07/06 06:44:35;;;;;;;7.63;3.42;;;18.50;1.00;;;;;;7362113;19;20010;-60
2022/07/06 06:47:05;;;;;;;5.07;2.97;;;19.80;1.00;;;;;;7381590;19;20015;-60
2022/07/06 06:49:35;;;;;;;7.68;3.90;;;19.60;1.00;;;;;;7363091;19;20038;-61
2022/07/06 06:52:08;;;;;;;8.00;3.50;;;19.60;1.00;;;;;;7359452;19;20090;-61
2022/07/06 06:54:58;;;;;;;3.80;2.80;;;20.30;1.00;;;;;;7361895;19;20770;-61
2022/07/06 06:57:28;;;;;;;7.38;3.05;;;20.60;1.00;;;;;;7359762;19;20354;-61
2022/07/06 06:59:59;;;;;;;7.00;3.10;;;19.30;1.00;;;;;;7367534;19;20025;-61
2022/07/06 07:02:29;;;;;;;4.93;3.40;;;19.10;1.00;;;;;;7383507;19;20481;-62
2022/07/06 07:04:59;;;;;;;4.20;3.08;;;19.30;1.00;;;;;;7389762;19;20047;-61
2022/07/06 07:07:32;;;;;;;8.52;3.95;;;19.20;1.00;;;;;;7366436;19;20110;-61
2022/07/06 07:10:03;;;;;;;4.90;3.40;;;19.10;1.00;;;;;;7369187;19;20078;-61
2022/07/06 07:12:33;;;;;;;4.53;3.10;;;19.20;1.00;;;;;;7365896;19;20015;-61
2022/07/06 07:15:03;;;;;;;5.47;3.33;;;19.30;1.00;;;;;;7367415;19;20018;-61
2022/07/06 07:17:32;;;;;;;4.38;3.08;;;19.40;1.00;;;;;;7365613;19;20745;-62
2022/07/06 07:20:02;;;;;;;9.77;3.13;;;19.70;1.00;;;;;;7391122;19;20463;-61
2022/07/06 07:22:35;;;;;;;4.00;3.13;;;19.60;1.00;;;;;;7367661;19;20318;-60
2022/07/06 07:25:05;;;;;;;8.35;3.08;;;20.00;1.00;;;;;;7368216;19;20358;-61
2022/07/06 07:27:35;;;;;;;7.70;3.75;;;20.50;1.00;;;;;;7365947;19;20014;-61
2022/07/06 07:30:09;;;;;;;5.38;2.90;;;20.70;1.00;;;;;;7367199;19;20018;-61
2022/07/06 07:32:40;;;;;;;3.58;3.05;;;20.90;1.00;;;;;;7366093;19;20024;-60
2022/07/06 07:35:11;;;;;;;6.50;2.92;;;20.50;1.00;;;;;;7389648;19;20767;-60
2022/07/06 07:37:43;;;;;;;4.18;3.00;;;19.90;1.00;;;;;;7367635;19;20006;-61
2022/07/06 07:40:14;;;;;;;3.53;3.22;;;19.60;1.00;;;;;;7367623;19;20430;-61
2022/07/06 07:42:44;;;;;;;4.60;3.10;;;19.40;1.00;;;;;;7366346;19;20130;-61
2022/07/06 07:45:15;;;;;;;4.22;3.00;;;20.30;1.00;;;;;;7364612;19;20187;-61
2022/07/06 07:47:45;;;;;;;4.15;3.00;;;19.60;1.00;;;;;;7366056;19;20014;-61
2022/07/06 07:50:16;;;;;;;4.85;3.28;;;20.30;1.00;;;;;;7388350;19;20029;-61
2022/07/06 07:52:48;;;;;;;4.93;2.88;;;19.80;1.00;;;;;;7365573;19;20021;-60
2022/07/06 07:55:18;;;;;;;5.45;2.80;;;19.90;1.00;;;;;;7365782;19;20014;-61
2022/07/06 07:58:08;;;;;;;7.65;3.20;;;20.30;1.00;;;;;;7368617;19;20007;-61
2022/07/06 08:00:38;;;;;;;4.45;2.70;;;20.20;1.00;;;;;;7365978;19;20018;-61
2022/07/06 08:03:09;;;;;;;5.00;3.20;;;19.90;1.00;;;;;;7369469;19;20007;-61
2022/07/06 08:05:39;;;;;;;5.50;3.05;;;20.40;1.00;;;;;;7363844;19;20020;-61
2022/07/06 08:08:11;;;;;;;3.70;2.60;;;19.70;1.00;;;;;;7389060;19;20035;-61
2022/07/06 08:10:41;;;;;;;4.00;2.60;;;20.20;1.00;;;;;;7364244;19;20017;-61
2022/07/06 08:13:31;;;;;;;4.10;2.92;;;20.70;1.00;;;;;;7368994;19;20044;-60
2022/07/06 08:16:01;;;;;;;5.82;3.20;;;21.20;1.00;;;;;;7361926;19;20007;-61
2022/07/06 08:18:31;;;;;;;5.43;3.17;;;19.90;1.00;;;;;;7368679;19;20019;-61
2022/07/06 08:21:01;;;;;;;4.80;3.05;;;20.60;1.00;;;;;;7363757;19;20031;-61
2022/07/06 08:23:54;;;;;;;3.50;2.90;;;20.50;1.00;;;;;;7368358;19;20030;-61
2022/07/06 08:26:24;;;;;;;4.95;2.83;;;20.90;1.00;;;;;;7384080;19;20029;-61
2022/07/06 08:28:54;;;;;;;8.85;3.00;;;20.70;1.00;;;;;;7368392;19;20493;-61
2022/07/06 08:31:24;;;;;;;5.43;3.08;;;20.40;1.00;;;;;;7364106;19;20081;-61
2022/07/06 08:34:14;;;;;;;4.43;2.85;;;20.30;1.00;;;;;;7366645;19;20274;-61
2022/07/06 08:36:44;;;;;;;5.82;3.15;;;20.70;1.00;;;;;;7365152;19;20019;-61
2022/07/06 08:39:17;;;;;;;6.43;3.22;;;20.80;1.00;;;;;;7367886;19;20072;-61
2022/07/06 08:41:47;;;;;;;5.32;3.25;;;20.90;1.00;;;;;;7362733;19;20090;-62
2022/07/06 08:44:18;;;;;;;4.82;3.22;;;21.10;1.00;;;;;;7387240;19;20020;-62
2022/07/06 08:46:51;;;;;;;3.95;3.03;;;21.50;1.00;;;;;;7361635;19;20028;-61
2022/07/06 08:49:22;;;;;;;3.28;2.90;;;21.10;1.00;;;;;;7366212;19;20086;-61
2022/07/06 08:51:53;;;;;;;7.93;3.15;;;20.90;1.00;;;;;;7363393;19;20033;-62
2022/07/06 08:54:26;;;;;;;3.75;3.05;;;21.30;1.00;;;;;;7364144;19;21611;-62
2022/07/06 08:56:56;;;;;;;4.22;3.70;;;21.50;1.00;;;;;;7361539;19;20415;-61
2022/07/06 08:59:27;;;;;;;4.47;3.38;;;20.70;1.00;;;;;;7389666;19;20092;-61
2022/07/06 09:02:00;;;;;;;3.65;3.08;;;20.90;1.00;;;;;;7362730;19;20473;-62
2022/07/06 09:04:30;;;;;;;7.18;3.45;;;20.80;1.00;;;;;;7362999;19;20490;-61
2022/07/06 09:07:00;;;;;;;4.57;3.22;;;21.10;1.00;;;;;;7360594;19;20011;-62
2022/07/06 09:09:33;;;;;;;5.95;3.22;;;21.40;1.00;;;;;;7364740;19;20476;-61
2022/07/06 09:12:04;;;;;;;3.70;3.20;;;20.70;1.00;;;;;;7361635;19;20137;-61
2022/07/06 09:14:34;;;;;;;5.35;3.17;;;20.90;1.00;;;;;;7361503;19;20019;-61
2022/07/06 09:17:06;;;;;;;4.47;3.30;;;21.30;1.00;;;;;;7380776;19;20462;-61
2022/07/06 09:19:48;;;;;;;4.32;3.35;;;21.60;1.00;;;;;;7364721;19;20039;-60
2022/07/06 09:22:30;;;;;;;4.80;3.15;;;21.60;1.00;;;;;;7358761;19;20022;-61
2022/07/06 09:25:13;;;;;;;4.78;3.47;;;21.90;1.00;;;;;;7360905;19;20014;-61
2022/07/06 09:27:47;;;;;;;6.43;3.78;;;21.50;1.00;;;;;;7362452;19;20098;-61
2022/07/06 09:30:18;;;;;;;4.55;2.63;;;21.40;1.00;;;;;;7363928;19;20010;-61
2022/07/06 09:32:51;;;;;;;4.40;2.92;;;22.40;1.00;;;;;;7362757;19;20022;-62
2022/07/06 09:35:26;;;;;;;2.80;2.50;;;21.90;1.00;;;;;;7382266;19;20039;-61
2022/07/06 09:38:04;;;;;;;3.72;2.75;;;21.90;1.00;;;;;;7362839;19;20014;-61
2022/07/06 09:40:39;;;;;;;6.47;3.13;;;21.90;1.00;;;;;;7363131;19;20039;-61
2022/07/06 09:43:14;;;;;;;4.80;2.70;;;22.00;1.00;;;;;;7360231;19;20031;-61
2022/07/06 09:45:46;;;;;;;8.23;2.85;;;22.30;1.00;;;;;;7357670;19;20727;-62
2022/07/06 09:48:18;;;;;;;6.07;2.78;;;22.60;1.00;;;;;;7363618;19;20015;-60
2022/07/06 09:50:50;;;;;;;8.77;3.40;;;21.50;1.00;;;;;;7363090;19;22356;-62
2022/07/06 09:53:20;;;;;;;3.28;2.97;;;22.00;1.00;;;;;;7385145;19;20093;-61
2022/07/06 09:55:54;;;;;;;3.10;2.30;;;22.20;1.00;;;;;;7357921;19;20085;-62
2022/07/06 09:58:24;;;;;;;;;;;22.60;1.00;;;;;;7365670;19;20032;-61
2022/07/06 10:01:14;;;;;;;7.85;3.35;;;22.10;1.00;;;;;;7361737;19;20286;-60
2022/07/06 10:03:44;;;;;;;7.57;3.45;;;22.40;1.00;;;;;;7364422;19;20379;-60
2022/07/06 10:06:15;;;;;;;3.92;2.88;;;22.10;1.00;;;;;;7358299;19;20015;-60
2022/07/06 10:08:45;;;;;;;5.88;3.20;;;22.60;1.00;;;;;;7364561;19;20017;-61
2022/07/06 10:11:19;;;;;;;8.40;3.28;;;22.40;1.00;;;;;;7382998;19;20011;-62
2022/07/06 10:13:51;;;;;;;2.90;2.20;;;22.20;1.00;;;;;;7361805;19;20023;-62
2022/07/06 10:16:21;;;;;;;5.63;2.80;;;22.80;1.00;;;;;;7356845;19;20018;-62
2022/07/06 10:18:53;;;;;;;6.20;2.50;;;23.20;1.00;;;;;;7364820;19;20014;-62
2022/07/06 10:21:24;;;;;;;6.90;3.00;;;23.10;1.00;;;;;;7361086;19;20077;-61
2022/07/06 10:23:59;;;;;;;4.38;2.50;;;22.90;1.00;;;;;;7363447;19;20068;-61
2022/07/06 10:26:33;;;;;;;3.15;2.22;;;22.70;1.00;;;;;;7372985;19;20094;-62
2022/07/06 10:29:03;;;;;;;4.63;2.58;;;23.30;1.00;;;;;;7386694;19;20085;-62
2022/07/06 10:31:35;;;;;;;4.85;3.30;;;23.70;1.00;;;;;;7358639;19;20463;-61
2022/07/06 10:34:08;;;;;;;5.25;2.72;;;22.80;1.00;;;;;;7365542;19;20006;-61
2022/07/06 10:36:40;;;;;;;4.28;2.47;;;23.00;1.00;;;;;;7366982;19;20018;-62
2022/07/06 10:41:57;;;;;;;8.68;2.67;;;22.90;1.00;;;;;;7369184;19;20031;-61
2022/07/06 10:44:28;;;;;;;5.32;2.97;;;22.90;1.00;;;;;;7391298;19;20466;-60
2022/07/06 10:46:59;;;;;;;8.10;2.50;;;22.90;1.00;;;;;;7366210;19;20431;-62
2022/07/06 10:49:30;;;;;;;3.38;2.38;;;22.70;1.00;;;;;;7370910;19;20125;-61
2022/07/06 10:52:20;;;;;;;5.28;2.58;;;23.10;1.00;;;;;;7367498;19;20011;-60
2022/07/06 10:54:50;;;;;;;7.15;2.63;;;22.50;1.00;;;;;;7368642;19;20021;-61
2022/07/06 10:57:22;;;;;;;3.38;2.85;;;22.40;1.00;;;;;;7365819;19;20011;-61
2022/07/06 11:00:04;;;;;;;5.78;2.72;;;22.60;1.00;;;;;;7368612;19;20541;-60
2022/07/06 11:02:41;;;;;;;8.45;2.75;;;22.30;1.00;;;;;;7367438;19;20031;-62
2022/07/06 11:05:14;;;;;;;5.10;2.53;;;22.40;1.00;;;;;;7390423;19;20667;-62
2022/07/06 11:07:52;;;;;;;5.75;3.13;;;22.40;1.00;;;;;;7366554;19;20561;-61
2022/07/06 11:10:25;;;;;;;3.63;3.00;;;22.80;1.00;;;;;;7370388;19;20066;-61
2022/07/06 11:13:03;;;;;;;5.10;2.75;;;22.70;1.00;;;;;;7366099;19;20016;-60
2022/07/06 11:15:50;;;;;;;5.35;2.38;;;22.60;1.00;;;;;;7364305;19;20011;-61
2022/07/06 11:18:22;;;;;;;5.25;2.60;;;23.30;1.00;;;;;;7371125;19;20061;-62
2022/07/06 11:21:17;;;;;;;5.68;2.78;;;22.40;1.00;;;;;;7368868;19;20507;-62
2022/07/06 11:23:49;;;;;;;4.72;2.97;;;22.80;1.00;;;;;;7369319;19;20026;-61
2022/07/06 11:26:20;;;;;;;5.20;2.40;;;23.00;1.00;;;;;;7384831;19;20033;-62
2022/07/06 11:28:54;;;;;;;5.93;2.40;;;23.30;1.00;;;;;;7369658;19;20014;-62
2022/07/06 11:31:24;;;;;;;3.85;2.72;;;23.30;1.00;;;;;;7365787;19;21234;-61
2022/07/06 11:33:54;;;;;;;4.35;2.53;;;23.40;1.00;;;;;;7369954;19;20025;-62
2022/07/06 11:36:25;;;;;;;3.72;2.55;;;23.50;1.00;;;;;;7363848;19;20596;-61
2022/07/06 11:39:00;;;;;;;4.10;2.50;;;23.50;1.00;;;;;;7368531;19;20351;-62
2022/07/06 11:41:30;;;;;;;4.88;2.47;;;23.80;1.00;;;;;;7371429;19;20022;-62
2022/07/06 11:44:03;;;;;;;6.95;3.00;;;23.80;1.00;;;;;;7388977;19;20021;-61
2022/07/06 11:46:34;;;;;;;4.65;2.75;;;23.00;1.00;;;;;;7366322;19;20006;-62
2022/07/06 11:49:06;;;;;;;6.22;2.90;;;22.90;1.00;;;;;;7370030;19;20035;-61
2022/07/06 11:51:38;;;;;;;7.88;2.83;;;22.80;1.00;;;;;;7369440;19;20090;-60
2022/07/06 11:54:12;;;;;;;6.22;2.58;;;23.10;1.00;;;;;;7369133;19;20438;-61
2022/07/06 11:56:49;;;;;;;5.82;2.53;;;23.10;1.00;;;;;;7363383;19;20286;-61
2022/07/06 11:59:24;;;;;;;4.35;3.10;;;23.60;1.00;;;;;;7390491;19;20010;-61
2022/07/06 12:02:01;;;;;;;5.43;2.58;;;22.60;1.00;;;;;;7367141;19;20764;-61
2022/07/06 12:04:31;;;;;;;4.20;2.50;;;23.10;1.00;;;;;;7367520;19;20493;-61
2022/07/06 12:07:04;;;;;;;9.23;3.28;;;23.20;1.00;;;;;;7365333;19;20498;-62
2022/07/06 12:09:34;;;;;;;6.53;3.25;;;23.30;1.00;;;;;;7367915;19;20533;-62
2022/07/06 12:12:06;;;;;;;5.47;2.72;;;23.00;1.00;;;;;;7365106;19;20828;-62
2022/07/06 12:14:39;;;;;;;5.30;3.13;;;23.50;1.00;;;;;;7367467;19;20039;-62
2022/07/06 12:17:11;;;;;;;5.22;2.90;;;23.40;1.00;;;;;;7386013;19;20021;-61
2022/07/06 12:19:43;;;;;;;4.97;2.90;;;23.10;1.00;;;;;;7367656;19;20025;-61
2022/07/06 12:22:13;;;;;;;5.18;2.95;;;23.10;1.00;;;;;;7365119;19;20022;-61
2022/07/06 12:24:46;;;;;;;3.53;2.67;;;23.50;1.00;;;;;;7366146;19;20031;-61
2022/07/06 12:27:18;;;;;;;5.95;3.10;;;23.30;1.00;;;;;;7363358;19;20015;-61
2022/07/06 12:29:51;;;;;;;8.05;2.90;;;22.50;1.00;;;;;;7369674;19;20497;-60
2022/07/06 12:32:23;;;;;;;4.05;2.97;;;22.60;1.00;;;;;;7387233;19;20011;-62
2022/07/06 12:35:05;;;;;;;6.40;3.17;;;22.60;1.00;;;;;;7365882;19;20034;-61
2022/07/06 12:37:36;;;;;;;7.05;2.72;;;22.00;1.00;;;;;;7365157;19;20010;-61
2022/07/06 12:40:15;;;;;;;4.07;2.67;;;21.90;1.00;;;;;;7367541;19;20018;-61
2022/07/06 12:42:48;;;;;;;5.93;2.50;;;22.10;1.00;;;;;;7364672;19;20015;-61
2022/07/06 12:45:21;;;;;;;4.88;2.55;;;22.60;1.00;;;;;;7365604;19;20394;-61
2022/07/06 12:48:01;;;;;;;4.88;2.88;;;22.80;1.00;;;;;;7365980;19;20070;-61
2022/07/06 12:50:35;;;;;;;4.15;2.67;;;21.90;1.00;;;;;;7367551;19;20022;-61
2022/07/06 12:53:06;;;;;;;4.80;2.67;;;22.00;1.00;;;;;;7385275;19;20010;-62
2022/07/06 12:55:36;;;;;;;3.70;2.53;;;22.60;1.00;;;;;;7362046;19;20026;-62
2022/07/06 12:58:06;;;;;;;5.57;2.67;;;22.40;1.00;;;;;;7363951;19;20014;-61
2022/07/06 13:00:48;;;;;;;6.88;2.42;;;22.60;1.00;;;;;;7366449;19;20011;-60
2022/07/06 13:03:18;;;;;;;5.18;2.25;;;23.20;1.00;;;;;;7364543;19;20010;-60
2022/07/06 13:05:52;;;;;;;3.28;2.30;;;23.40;1.00;;;;;;7362652;19;20049;-60
2022/07/06 13:08:22;;;;;;;5.43;2.30;;;23.90;1.00;;;;;;7388695;19;20034;-60
2022/07/06 13:10:52;;;;;;;5.10;2.30;;;23.70;1.00;;;;;;7365705;19;20003;-61
2022/07/06 13:13:22;;;;;;;7.15;2.20;;;23.20;1.00;;;;;;7364964;19;20349;-61
2022/07/06 13:15:55;;;;;;;2.63;1.70;;;23.80;1.00;;;;;;7361902;19;20483;-61
2022/07/06 13:18:24;;;;;;;2.72;1.92;;;23.50;1.00;;;;;;7366660;19;20006;-61
2022/07/06 13:20:55;;;;;;;5.82;2.50;;;23.50;1.00;;;;;;7366318;19;20034;-61
2022/07/06 13:23:24;;;;;;;2.80;2.08;;;23.70;1.00;;;;;;7385869;19;20105;-60
2022/07/06 13:25:55;;;;;;;4.05;2.10;;;23.40;1.00;;;;;;7361888;19;20085;-60
2022/07/06 13:28:25;;;;;;;3.42;2.55;;;23.30;1.00;;;;;;7365306;19;20010;-61